createdAt,value
2022-08-19T00:00:37.498Z,0.40
2022-08-19T00:03:07.983Z,0.38
2022-08-19T00:05:36.233Z,0.55
2022-08-19T00:08:04.733Z,0.60
2022-08-19T00:10:32.490Z,0.40
2022-08-19T00:13:00.100Z,0.50
2022-08-19T00:15:28.885Z,0.38
2022-08-19T00:17:56.484Z,0.40
2022-08-19T00:20:24.122Z,0.50
2022-08-19T00:22:53.076Z,0.50
2022-08-19T00:25:30.070Z,0.50
2022-08-19T00:27:58.258Z,0.60
2022-08-19T00:30:26.136Z,0.40
2022-08-19T00:32:56.133Z,0.40
2022-08-19T00:35:24.354Z,0.40
2022-08-19T00:37:52.422Z,0.50
2022-08-19T00:40:20.664Z,0.50
2022-08-19T00:42:49.268Z,0.60
2022-08-19T00:45:21.848Z,0.50
2022-08-19T00:47:49.485Z,0.60
2022-08-19T00:50:21.304Z,0.50
2022-08-19T00:52:52.404Z,0.40
2022-08-19T00:55:27.818Z,0.50
2022-08-19T00:58:00.727Z,0.50
2022-08-19T01:00:30.677Z,0.38
2022-08-19T01:02:58.662Z,0.50
2022-08-19T01:05:29.801Z,0.40
2022-08-19T01:08:00.531Z,0.52
2022-08-19T01:10:36.820Z,0.60
2022-08-19T01:13:06.005Z,0.55
2022-08-19T01:15:47.729Z,0.52
2022-08-19T01:18:17.948Z,0.40
2022-08-19T01:20:46.541Z,0.90
2022-08-19T01:23:14.893Z,0.47
2022-08-19T01:25:54.890Z,0.40
2022-08-19T01:28:39.634Z,0.40
2022-08-19T01:31:27.116Z,0.40
2022-08-19T01:33:57.652Z,0.52
2022-08-19T01:36:32.794Z,0.40
2022-08-19T01:39:02.791Z,0.85
2022-08-19T01:41:30.715Z,0.50
2022-08-19T01:44:03.266Z,0.47
2022-08-19T01:46:45.969Z,0.52
2022-08-19T01:49:13.626Z,0.60
2022-08-19T01:51:41.588Z,0.60
2022-08-19T01:54:23.098Z,0.40
2022-08-19T01:57:00.782Z,0.45
2022-08-19T01:59:29.184Z,0.43
2022-08-19T02:01:56.963Z,0.50
2022-08-19T02:04:26.670Z,0.40
2022-08-19T02:06:54.617Z,0.55
2022-08-19T02:09:22.427Z,0.57
2022-08-19T02:11:50.705Z,0.50
2022-08-19T02:14:18.761Z,0.50
2022-08-19T02:16:46.585Z,0.50
2022-08-19T02:19:14.497Z,0.55
2022-08-19T02:21:42.223Z,0.80
2022-08-19T02:24:10.105Z,0.70
2022-08-19T02:26:37.861Z,0.63
2022-08-19T02:29:05.773Z,0.70
2022-08-19T02:31:34.515Z,0.50
2022-08-19T02:34:03.753Z,0.80
2022-08-19T02:36:31.610Z,0.65
2022-08-19T02:38:59.579Z,0.93
2022-08-19T02:41:32.094Z,0.60
2022-08-19T02:44:29.409Z,0.75
2022-08-19T02:46:53.059Z,0.60
2022-08-19T02:49:21.311Z,0.70
2022-08-19T02:51:49.047Z,1.08
2022-08-19T02:54:17.142Z,0.90
2022-08-19T02:56:46.117Z,1.08
2022-08-19T02:59:13.746Z,1.05
2022-08-19T03:01:43.147Z,1.55
2022-08-19T03:04:16.951Z,0.80
2022-08-19T03:06:46.953Z,0.60
2022-08-19T03:09:15.589Z,0.70
2022-08-19T03:11:43.918Z,0.80
2022-08-19T03:14:12.223Z,0.70
2022-08-19T03:16:50.187Z,0.80
2022-08-19T03:19:20.039Z,0.65
2022-08-19T03:21:48.195Z,0.60
2022-08-19T03:24:18.423Z,0.60
2022-08-19T03:26:49.454Z,0.63
2022-08-19T03:29:25.892Z,0.60
2022-08-19T03:32:01.909Z,0.60
2022-08-19T03:34:34.465Z,0.93
2022-08-19T03:37:07.770Z,0.70
2022-08-19T03:39:38.271Z,1.20
2022-08-19T03:42:38.717Z,0.77
2022-08-19T03:44:54.390Z,0.50
2022-08-19T03:47:22.117Z,0.52
2022-08-19T03:49:49.723Z,0.65
2022-08-19T03:52:17.515Z,0.45
2022-08-19T03:54:46.200Z,0.40
2022-08-19T03:57:13.876Z,0.50
2022-08-19T03:59:41.772Z,0.50
2022-08-19T04:02:14.183Z,0.40
2022-08-19T04:04:44.554Z,0.47
2022-08-19T04:07:16.984Z,0.43
2022-08-19T04:09:44.811Z,0.70
2022-08-19T04:12:12.824Z,0.50
2022-08-19T04:14:40.940Z,0.40
2022-08-19T04:17:08.898Z,0.50
2022-08-19T04:19:37.099Z,0.45
2022-08-19T04:22:05.980Z,0.47
2022-08-19T04:24:35.024Z,0.30
2022-08-19T04:27:03.810Z,0.52
2022-08-19T04:29:31.496Z,0.45
2022-08-19T04:32:00.378Z,0.65
2022-08-19T04:35:01.214Z,0.60
2022-08-19T04:37:35.146Z,0.50
2022-08-19T04:40:24.244Z,0.63
2022-08-19T04:42:52.267Z,0.85
2022-08-19T04:45:20.176Z,0.40
2022-08-19T04:47:58.490Z,0.73
2022-08-19T04:50:42.762Z,0.40
2022-08-19T04:53:11.405Z,0.50
2022-08-19T04:55:43.794Z,0.45
2022-08-19T04:58:11.437Z,1.05
2022-08-19T05:00:42.000Z,0.60
2022-08-19T05:05:44.642Z,0.50
2022-08-19T05:08:30.884Z,0.50
2022-08-19T05:11:00.960Z,0.47
2022-08-19T05:13:29.462Z,0.50
2022-08-19T05:15:58.920Z,0.50
2022-08-19T05:18:46.614Z,0.40
2022-08-19T05:21:35.831Z,0.65
2022-08-19T05:24:09.550Z,0.30
2022-08-19T05:26:38.847Z,0.32
2022-08-19T05:29:08.567Z,0.40
2022-08-19T05:31:41.705Z,0.30
2022-08-19T05:34:20.156Z,0.32
2022-08-19T05:36:49.223Z,0.40
2022-08-19T05:39:20.713Z,0.30
2022-08-19T05:41:52.420Z,0.40
2022-08-19T05:44:21.108Z,0.30
2022-08-19T05:46:49.231Z,0.30
2022-08-19T05:49:17.757Z,0.28
2022-08-19T05:51:45.691Z,0.30
2022-08-19T05:54:14.620Z,0.30
2022-08-19T05:56:43.813Z,0.20
2022-08-19T05:59:12.523Z,0.20
2022-08-19T06:01:42.719Z,0.25
2022-08-19T06:04:10.779Z,0.20
2022-08-19T06:06:38.609Z,0.20
2022-08-19T06:09:07.876Z,0.10
2022-08-19T06:11:52.863Z,0.20
2022-08-19T06:14:27.870Z,0.10
2022-08-19T06:16:56.381Z,0.15
2022-08-19T06:19:25.461Z,0.10
2022-08-19T06:21:53.650Z,0.20
2022-08-19T06:24:27.205Z,0.20
2022-08-19T06:27:00.755Z,0.30
2022-08-19T06:32:00.639Z,0.20
2022-08-19T06:34:30.700Z,0.20
2022-08-19T06:37:04.185Z,0.10
2022-08-19T06:39:40.343Z,0.10
2022-08-19T06:42:11.021Z,0.10
2022-08-19T06:44:43.331Z,0.10
2022-08-19T06:47:23.089Z,0.10
2022-08-19T06:50:01.042Z,0.10
2022-08-19T06:52:29.470Z,0.00
2022-08-19T06:54:59.822Z,0.17
2022-08-19T06:57:28.399Z,0.20
2022-08-19T06:59:57.582Z,0.10
2022-08-19T07:02:27.642Z,0.17
2022-08-19T07:04:55.393Z,0.20
2022-08-19T07:07:25.452Z,0.10
2022-08-19T07:09:59.215Z,0.10
2022-08-19T07:12:38.040Z,0.10
2022-08-19T07:15:07.560Z,0.10
2022-08-19T07:17:39.905Z,0.20
2022-08-19T07:20:11.240Z,0.20
2022-08-19T07:22:39.916Z,0.20
2022-08-19T07:25:10.076Z,0.20
2022-08-19T07:27:54.252Z,0.20
2022-08-19T07:30:23.545Z,0.10
2022-08-19T07:32:54.171Z,0.10
2022-08-19T07:35:22.017Z,0.20
2022-08-19T07:37:49.635Z,0.10
2022-08-19T07:40:17.395Z,0.22
2022-08-19T07:42:46.956Z,0.20
2022-08-19T07:45:22.004Z,0.20
2022-08-19T07:47:51.355Z,0.10
2022-08-19T07:50:21.316Z,0.20
2022-08-19T07:52:50.891Z,0.28
2022-08-19T07:55:41.526Z,0.10
2022-08-19T07:58:10.057Z,0.10
2022-08-19T08:00:38.397Z,0.30
2022-08-19T08:03:05.951Z,0.10
2022-08-19T08:05:52.216Z,0.10
2022-08-19T08:08:45.318Z,0.20
2022-08-19T08:11:20.548Z,0.10
2022-08-19T08:14:01.097Z,0.15
2022-08-19T08:16:39.648Z,0.23
2022-08-19T08:19:20.646Z,0.10
2022-08-19T08:21:55.656Z,0.10
2022-08-19T08:24:28.712Z,0.10
2022-08-19T08:26:58.018Z,0.20
2022-08-19T08:29:34.707Z,0.20
2022-08-19T08:32:03.890Z,0.20
2022-08-19T08:34:42.593Z,0.30
2022-08-19T08:37:10.469Z,0.20
2022-08-19T08:39:38.213Z,0.20
2022-08-19T08:42:29.589Z,0.20
2022-08-19T08:45:03.408Z,0.20
2022-08-19T08:47:38.213Z,0.20
2022-08-19T08:50:20.612Z,0.30
2022-08-19T08:52:52.503Z,0.20
2022-08-19T08:55:36.939Z,0.20
2022-08-19T08:58:20.716Z,0.20
2022-08-19T09:00:51.083Z,0.20
2022-08-19T09:03:23.197Z,0.65
2022-08-19T09:06:12.171Z,0.10
2022-08-19T09:09:15.037Z,0.30
2022-08-19T09:12:20.675Z,0.30
2022-08-19T09:15:04.897Z,0.20
2022-08-19T09:17:36.246Z,0.20
2022-08-19T09:20:24.320Z,0.30
2022-08-19T09:22:54.171Z,0.22
2022-08-19T09:25:26.772Z,0.30
2022-08-19T09:28:02.353Z,0.22
2022-08-19T09:30:35.855Z,0.20
2022-08-19T09:33:04.160Z,0.20
2022-08-19T09:35:53.642Z,0.68
2022-08-19T09:38:23.607Z,0.20
2022-08-19T09:40:51.373Z,0.20
2022-08-19T09:43:32.816Z,0.20
2022-08-19T09:46:02.638Z,0.20
2022-08-19T09:48:33.601Z,0.17
2022-08-19T09:51:06.818Z,0.30
2022-08-19T09:53:35.375Z,0.17
2022-08-19T09:56:08.336Z,0.20
2022-08-19T09:58:37.399Z,0.17
2022-08-19T10:01:07.217Z,0.30
2022-08-19T10:03:37.247Z,0.30
2022-08-19T10:06:14.872Z,0.30
2022-08-19T10:08:50.496Z,0.25
2022-08-19T10:11:27.249Z,0.22
2022-08-19T10:13:56.652Z,0.10
2022-08-19T10:16:25.911Z,0.20
2022-08-19T10:18:58.917Z,0.10
2022-08-19T10:21:32.182Z,0.80
2022-08-19T10:24:04.883Z,0.20
2022-08-19T10:26:37.886Z,0.20
2022-08-19T10:29:09.274Z,0.30
2022-08-19T10:31:59.983Z,0.40
2022-08-19T10:34:27.871Z,0.30
2022-08-19T10:37:01.232Z,0.38
2022-08-19T10:39:43.083Z,0.30
2022-08-19T10:42:14.523Z,0.30
2022-08-19T10:44:43.605Z,0.30
2022-08-19T10:47:24.313Z,0.40
2022-08-19T10:50:13.653Z,0.30
2022-08-19T10:52:50.111Z,0.40
2022-08-19T10:55:42.521Z,0.30
2022-08-19T10:58:27.277Z,0.40
2022-08-19T11:03:24.754Z,0.73
2022-08-19T11:06:03.261Z,0.75
2022-08-19T11:08:32.011Z,0.40
2022-08-19T11:11:03.993Z,0.50
2022-08-19T11:13:34.613Z,0.30
2022-08-19T11:16:08.183Z,0.80
2022-08-19T11:18:42.331Z,0.60
2022-08-19T11:21:14.291Z,0.32
2022-08-19T11:23:42.449Z,0.40
2022-08-19T11:26:10.278Z,0.40
2022-08-19T11:28:38.283Z,0.50
2022-08-19T11:31:10.867Z,0.50
2022-08-19T11:33:39.006Z,0.55
2022-08-19T11:36:06.932Z,0.30
2022-08-19T11:38:36.812Z,0.38
2022-08-19T11:41:08.627Z,0.65
2022-08-19T11:43:37.752Z,0.65
2022-08-19T11:46:08.508Z,0.40
2022-08-19T11:48:36.670Z,1.20
2022-08-19T11:51:11.854Z,0.57
2022-08-19T11:53:40.080Z,0.60
2022-08-19T11:56:09.455Z,0.70
2022-08-19T11:58:37.762Z,0.70
2022-08-19T12:01:10.629Z,0.55
2022-08-19T12:03:38.781Z,0.60
2022-08-19T12:06:14.409Z,0.80
2022-08-19T12:08:44.228Z,0.55
2022-08-19T12:11:14.748Z,0.63
2022-08-19T12:13:45.374Z,0.50
2022-08-19T12:16:24.750Z,0.40
2022-08-19T12:18:52.618Z,0.70
2022-08-19T12:21:23.781Z,0.60
2022-08-19T12:23:55.697Z,0.60
2022-08-19T12:26:24.433Z,0.50
2022-08-19T12:28:52.074Z,0.80
2022-08-19T12:31:20.864Z,0.70
2022-08-19T12:33:48.630Z,0.55
2022-08-19T12:36:18.893Z,0.65
2022-08-19T12:38:47.918Z,0.55
2022-08-19T12:41:19.370Z,0.60
2022-08-19T12:43:46.981Z,0.47
2022-08-19T12:46:16.926Z,0.70
2022-08-19T12:48:46.606Z,0.60
2022-08-19T12:51:17.189Z,0.88
2022-08-19T12:53:45.246Z,0.57
2022-08-19T12:56:15.484Z,0.60
2022-08-19T12:58:48.730Z,0.73
2022-08-19T13:01:22.633Z,0.70
2022-08-19T13:03:53.286Z,0.75
2022-08-19T13:06:20.913Z,0.70
2022-08-19T13:08:48.696Z,0.80
2022-08-19T13:11:19.094Z,0.60
2022-08-19T13:13:49.084Z,0.82
2022-08-19T13:16:17.113Z,0.60
2022-08-19T13:18:52.973Z,0.75
2022-08-19T13:21:24.140Z,0.60
2022-08-19T13:23:53.151Z,0.50
2022-08-19T13:26:20.916Z,0.60
2022-08-19T13:29:06.990Z,0.77
2022-08-19T13:31:54.521Z,1.00
2022-08-19T13:34:38.055Z,0.63
2022-08-19T13:37:06.357Z,1.15
2022-08-19T13:39:35.260Z,0.50
2022-08-19T13:42:05.355Z,0.50
2022-08-19T13:44:33.621Z,0.50
2022-08-19T13:47:06.800Z,0.60
2022-08-19T13:49:37.033Z,0.73
2022-08-19T13:52:06.649Z,0.60
2022-08-19T13:54:34.351Z,0.60
2022-08-19T13:57:01.897Z,0.65
2022-08-19T13:59:29.328Z,0.55
2022-08-19T14:02:00.623Z,0.63
2022-08-19T14:04:28.381Z,0.50
2022-08-19T14:06:56.191Z,0.77
2022-08-19T14:09:23.740Z,0.40
2022-08-19T14:11:51.986Z,0.70
2022-08-19T14:14:19.371Z,0.68
2022-08-19T14:16:46.780Z,0.50
2022-08-19T14:19:14.250Z,0.70
2022-08-19T14:21:42.232Z,0.40
2022-08-19T14:24:09.908Z,1.08
2022-08-19T14:26:37.568Z,0.40
2022-08-19T14:29:05.364Z,0.63
2022-08-19T14:31:32.911Z,0.60
2022-08-19T14:34:00.525Z,0.50
2022-08-19T14:36:27.967Z,0.80
2022-08-19T14:38:55.616Z,0.80
2022-08-19T14:41:24.695Z,0.70
2022-08-19T14:43:53.341Z,0.60
2022-08-19T14:46:23.719Z,0.98
2022-08-19T14:48:53.220Z,0.50
2022-08-19T14:51:24.864Z,0.70
2022-08-19T14:53:53.035Z,0.60
2022-08-19T14:56:24.978Z,0.80
2022-08-19T14:58:55.025Z,0.50
2022-08-19T15:01:24.148Z,0.63
2022-08-19T15:03:54.102Z,0.60
2022-08-19T15:06:23.370Z,0.40
2022-08-19T15:08:52.707Z,0.70
2022-08-19T15:11:23.749Z,0.50
2022-08-19T15:13:51.706Z,0.60
2022-08-19T15:16:20.030Z,1.08
2022-08-19T15:18:51.101Z,0.60
2022-08-19T15:21:26.446Z,0.77
2022-08-19T15:23:56.695Z,0.60
2022-08-19T15:26:26.286Z,0.65
2022-08-19T15:28:53.745Z,0.80
2022-08-19T15:31:25.416Z,0.55
2022-08-19T15:33:58.800Z,0.55
2022-08-19T15:36:27.315Z,0.70
2022-08-19T15:38:57.787Z,0.63
2022-08-19T15:41:29.569Z,0.75
2022-08-19T15:43:59.825Z,0.57
2022-08-19T15:46:31.191Z,0.70
2022-08-19T15:49:00.598Z,0.75
2022-08-19T15:51:35.784Z,0.50
2022-08-19T15:54:07.320Z,0.65
2022-08-19T15:56:57.849Z,0.70
2022-08-19T15:59:47.315Z,0.68
2022-08-19T16:02:36.993Z,0.73
2022-08-19T16:05:25.515Z,0.65
2022-08-19T16:07:53.297Z,0.50
2022-08-19T16:10:27.420Z,0.75
2022-08-19T16:12:57.788Z,0.73
2022-08-19T16:15:30.738Z,0.40
2022-08-19T16:17:59.039Z,0.60
2022-08-19T16:20:28.085Z,0.50
2022-08-19T16:22:58.666Z,0.40
2022-08-19T16:25:29.292Z,0.40
2022-08-19T16:28:06.391Z,0.70
2022-08-19T16:30:34.470Z,0.85
2022-08-19T16:33:01.919Z,0.80
2022-08-19T16:35:29.407Z,0.60
2022-08-19T16:37:56.983Z,0.88
2022-08-19T16:40:25.004Z,0.73
2022-08-19T16:42:53.895Z,0.82
2022-08-19T16:45:22.149Z,0.80
2022-08-19T16:47:50.864Z,0.95
2022-08-19T16:50:29.190Z,0.75
2022-08-19T16:53:10.071Z,0.70
2022-08-19T16:55:37.864Z,0.60
2022-08-19T16:58:05.653Z,0.70
2022-08-19T17:00:33.822Z,0.70
2022-08-19T17:03:14.597Z,0.65
2022-08-19T17:05:55.889Z,0.75
2022-08-19T17:08:27.241Z,0.90
2022-08-19T17:11:17.083Z,0.80
2022-08-19T17:13:44.583Z,1.10
2022-08-19T17:16:20.166Z,1.00
2022-08-19T17:18:52.429Z,0.70
2022-08-19T17:21:25.747Z,0.70
2022-08-19T17:23:54.535Z,0.90
2022-08-19T17:26:22.855Z,0.63
2022-08-19T17:28:52.494Z,0.52
2022-08-19T17:31:23.325Z,0.85
2022-08-19T17:33:51.236Z,1.38
2022-08-19T17:36:23.957Z,0.90
2022-08-19T17:38:52.970Z,1.05
2022-08-19T17:41:20.638Z,0.73
2022-08-19T17:43:48.188Z,0.80
2022-08-19T17:46:19.537Z,0.65
2022-08-19T17:48:52.550Z,0.80
2022-08-19T17:51:25.606Z,0.73
2022-08-19T17:53:54.722Z,1.00
2022-08-19T17:56:23.767Z,0.98
2022-08-19T17:58:57.689Z,1.02
2022-08-19T18:01:33.484Z,0.60
2022-08-19T18:04:17.406Z,0.90
2022-08-19T18:06:45.995Z,1.25
2022-08-19T18:09:24.023Z,1.25
2022-08-19T18:11:53.736Z,1.00
2022-08-19T18:14:28.156Z,2.85
2022-08-19T18:17:01.277Z,0.80
2022-08-19T18:19:34.201Z,0.80
2022-08-19T18:22:08.945Z,0.70
2022-08-19T18:24:40.734Z,1.13
2022-08-19T18:27:08.699Z,0.80
2022-08-19T18:29:38.366Z,0.88
2022-08-19T18:32:13.802Z,1.20
2022-08-19T18:34:43.024Z,1.40
2022-08-19T18:37:11.229Z,0.60
2022-08-19T18:39:58.002Z,1.30
2022-08-19T18:42:43.880Z,0.82
2022-08-19T18:45:30.070Z,0.70
2022-08-19T18:48:25.770Z,1.00
2022-08-19T18:51:00.375Z,1.33
2022-08-19T18:53:30.357Z,1.20
2022-08-19T18:56:01.113Z,1.73
2022-08-19T18:58:33.992Z,0.70
2022-08-19T19:01:11.301Z,0.77
2022-08-19T19:03:45.483Z,0.80
2022-08-19T19:06:20.097Z,1.27
2022-08-19T19:08:52.205Z,1.02
2022-08-19T19:11:27.781Z,1.60
2022-08-19T19:13:55.283Z,1.52
2022-08-19T19:16:26.711Z,1.15
2022-08-19T19:18:54.228Z,0.90
2022-08-19T19:21:23.556Z,1.30
2022-08-19T19:23:55.642Z,1.30
2022-08-19T19:26:23.563Z,0.95
2022-08-19T19:28:51.668Z,0.93
2022-08-19T19:31:23.263Z,0.93
2022-08-19T19:33:50.889Z,1.27
2022-08-19T19:36:18.910Z,1.00
2022-08-19T19:38:48.829Z,1.35
2022-08-19T19:41:19.942Z,1.40
2022-08-19T19:43:56.677Z,0.90
2022-08-19T19:46:37.359Z,2.25
2022-08-19T19:49:06.153Z,3.38
2022-08-19T19:51:37.648Z,2.88
2022-08-19T19:54:07.392Z,5.70
2022-08-19T19:56:35.318Z,7.80
2022-08-19T19:59:04.107Z,5.45
2022-08-19T20:01:31.773Z,5.85
2022-08-19T20:04:01.686Z,4.63
2022-08-19T20:06:29.776Z,4.85
2022-08-19T20:09:17.548Z,3.13
2022-08-19T20:11:53.711Z,3.15
2022-08-19T20:14:33.391Z,4.63
2022-08-19T20:17:02.292Z,5.68
2022-08-19T20:19:37.427Z,2.78
2022-08-19T20:22:06.992Z,2.97
2022-08-19T20:24:36.450Z,1.85
2022-08-19T20:27:05.025Z,1.13
2022-08-19T20:29:37.859Z,1.40
2022-08-19T20:32:07.945Z,1.00
2022-08-19T20:34:35.448Z,1.00
2022-08-19T20:37:03.313Z,0.90
2022-08-19T20:39:31.068Z,0.70
2022-08-19T20:42:00.706Z,0.90
2022-08-19T20:44:28.660Z,0.82
2022-08-19T20:46:59.424Z,0.82
2022-08-19T20:49:29.566Z,1.13
2022-08-19T20:51:57.569Z,0.93
2022-08-19T20:54:25.437Z,0.85
2022-08-19T20:56:53.104Z,0.80
2022-08-19T20:59:21.985Z,0.68
2022-08-19T21:01:53.060Z,0.73
2022-08-19T21:04:21.811Z,0.60
2022-08-19T21:06:52.689Z,0.65
2022-08-19T21:09:20.689Z,0.60
2022-08-19T21:11:48.384Z,0.90
2022-08-19T21:14:16.660Z,0.70
2022-08-19T21:16:44.912Z,0.80
2022-08-19T21:19:13.009Z,1.23
2022-08-19T21:21:40.543Z,1.90
2022-08-19T21:24:08.365Z,1.70
2022-08-19T21:26:35.925Z,1.50
2022-08-19T21:29:03.894Z,1.02
2022-08-19T21:31:31.510Z,0.90
2022-08-19T21:34:01.066Z,0.93
2022-08-19T21:36:28.735Z,1.42
2022-08-19T21:38:56.475Z,1.65
2022-08-19T21:41:24.213Z,1.35
2022-08-19T21:43:52.083Z,1.50
2022-08-19T21:46:22.166Z,1.00
2022-08-19T21:48:50.259Z,1.00
2022-08-19T21:51:18.030Z,0.80
2022-08-19T21:53:45.624Z,1.02
2022-08-19T21:56:13.613Z,0.80
2022-08-19T21:58:41.545Z,0.60
2022-08-19T22:01:09.563Z,0.50
2022-08-19T22:03:39.106Z,0.68
2022-08-19T22:06:07.427Z,0.70
2022-08-19T22:08:35.244Z,0.50
2022-08-19T22:11:04.568Z,0.70
2022-08-19T22:13:39.904Z,0.70
2022-08-19T22:16:09.627Z,0.60
2022-08-19T22:18:37.258Z,0.60
2022-08-19T22:21:11.407Z,0.50
2022-08-19T22:23:40.815Z,0.63
2022-08-19T22:26:08.933Z,0.50
2022-08-19T22:28:37.279Z,0.73
2022-08-19T22:31:06.145Z,0.68
2022-08-19T22:33:34.162Z,1.05
2022-08-19T22:36:01.720Z,0.50
2022-08-19T22:38:29.400Z,0.50
2022-08-19T22:40:57.401Z,0.45
2022-08-19T22:43:30.220Z,0.50
2022-08-19T22:45:59.174Z,0.30
2022-08-19T22:48:29.038Z,0.45
2022-08-19T22:51:16.010Z,0.40
2022-08-19T22:53:46.796Z,0.57
2022-08-19T22:56:18.313Z,0.63
2022-08-19T22:58:50.065Z,0.40
2022-08-19T23:01:27.557Z,0.47
2022-08-19T23:03:59.225Z,0.55
2022-08-19T23:06:33.962Z,0.50
2022-08-19T23:09:05.384Z,0.40
2022-08-19T23:11:38.158Z,0.43
2022-08-19T23:14:10.580Z,0.47
2022-08-19T23:16:38.255Z,0.40
2022-08-19T23:19:07.484Z,0.60
2022-08-19T23:21:36.598Z,0.60
2022-08-19T23:24:04.780Z,0.60
2022-08-19T23:26:35.705Z,0.52
2022-08-19T23:29:24.698Z,0.57
2022-08-19T23:31:52.197Z,0.57
2022-08-19T23:34:19.686Z,0.60
2022-08-19T23:36:47.030Z,0.80
2022-08-19T23:39:14.451Z,0.50
2022-08-19T23:41:41.852Z,0.60
2022-08-19T23:44:14.713Z,0.57
2022-08-19T23:46:54.493Z,0.70
2022-08-19T23:49:24.089Z,0.70
2022-08-19T23:51:51.450Z,0.50
2022-08-19T23:54:18.813Z,0.60
2022-08-19T23:56:46.216Z,0.50
2022-08-19T23:59:13.560Z,0.50
